Time;durP1;ratioP1;P1;durP2;ratioP2;P2;SDS_P1;SDS_P2;PMS_P1;PMS_P2;Temp;Humidity;BMP_temperature;BMP_pressure;BME280_temperature;BME280_humidity;BME280_pressure;Samples;Min_cycle;Max_cycle;Signal;HPM_P1;HPM_P2
2024/02/04 00:02:06;;;;;;;;;;;17.20;63.40;;;;;;5021827;28;1376;-69
2024/02/04 00:04:32;;;;;;;;;;;17.20;63.40;;;;;;5023240;28;1797;-69
2024/02/04 00:06:57;;;;;;;;;;;17.30;63.50;;;;;;5020661;28;1525;-69
2024/02/04 00:09:23;;;;;;;;;;;17.20;63.40;;;;;;5021943;28;1549;-69
2024/02/04 00:11:48;;;;;;;;;;;17.20;63.50;;;;;;5020484;28;1931;-71
2024/02/04 00:14:14;;;;;;;;;;;17.20;63.50;;;;;;5022448;28;1294;-69
2024/02/04 00:16:39;;;;;;;;;;;17.20;63.50;;;;;;5019567;28;1281;-69
2024/02/04 00:19:05;;;;;;;;;;;17.30;63.50;;;;;;5023085;28;1393;-70
2024/02/04 00:21:30;;;;;;;;;;;17.20;63.50;;;;;;5016045;28;1003;-69
2024/02/04 00:23:56;;;;;;;;;;;17.20;63.50;;;;;;5021754;28;1389;-70
2024/02/04 00:26:21;;;;;;;;;;;17.20;63.50;;;;;;5021722;28;1242;-72
2024/02/04 00:28:47;;;;;;;;;;;17.20;63.50;;;;;;5022099;28;1371;-75
2024/02/04 00:31:12;;;;;;;;;;;17.20;63.50;;;;;;5016899;28;1955;-69
2024/02/04 00:33:37;;;;;;;;;;;17.20;63.60;;;;;;5023024;28;1350;-69
2024/02/04 00:36:03;;;;;;;;;;;17.20;63.60;;;;;;5020464;28;1245;-72
2024/02/04 00:38:29;;;;;;;;;;;17.20;63.60;;;;;;5018931;28;1364;-71
2024/02/04 00:40:56;;;;;;;;;;;17.20;63.60;;;;;;5023416;28;1396;-71
2024/02/04 00:43:22;;;;;;;;;;;17.20;63.60;;;;;;5018138;28;995;-71
2024/02/04 00:45:47;;;;;;;;;;;17.20;63.60;;;;;;5018484;28;1188;-71
2024/02/04 00:48:12;;;;;;;;;;;17.20;63.60;;;;;;5019191;28;1794;-71
2024/02/04 00:50:38;;;;;;;;;;;17.20;64.30;;;;;;5018830;28;1993;-71
2024/02/04 00:53:03;;;;;;;;;;;17.20;63.60;;;;;;5019343;28;1377;-71
2024/02/04 00:55:29;;;;;;;;;;;17.20;63.60;;;;;;5027251;28;1246;-71
2024/02/04 00:57:58;;;;;;;;;;;17.20;63.60;;;;;;5027688;28;1644;-71
2024/02/04 01:00:24;;;;;;;;;;;17.20;63.70;;;;;;5022368;28;1088;-71
2024/02/04 01:02:49;;;;;;;;;;;17.20;63.60;;;;;;5020633;28;1362;-71
2024/02/04 01:05:15;;;;;;;;;;;17.20;63.70;;;;;;5018436;28;1439;-71
2024/02/04 01:07:40;;;;;;;;;;;17.20;63.70;;;;;;5019717;28;1610;-71
2024/02/04 01:10:06;;;;;;;;;;;17.20;63.70;;;;;;5018356;28;1513;-71
2024/02/04 01:12:31;;;;;;;;;;;17.20;63.70;;;;;;5017041;28;1938;-71
2024/02/04 01:14:57;;;;;;;;;;;17.20;63.70;;;;;;5019781;28;1374;-71
2024/02/04 01:17:22;;;;;;;;;;;17.20;63.70;;;;;;5017941;28;1405;-71
2024/02/04 01:19:48;;;;;;;;;;;17.20;64.40;;;;;;5021266;28;1472;-71
2024/02/04 01:22:13;;;;;;;;;;;17.20;63.70;;;;;;5020392;28;1235;-71
2024/02/04 01:24:39;;;;;;;;;;;17.20;63.70;;;;;;5018636;28;1446;-71
2024/02/04 01:27:04;;;;;;;;;;;17.20;63.70;;;;;;5019125;28;1581;-71
2024/02/04 01:29:29;;;;;;;;;;;17.20;63.70;;;;;;5018700;28;1377;-71
2024/02/04 01:31:55;;;;;;;;;;;17.20;63.70;;;;;;5020107;28;2029;-71
2024/02/04 01:34:20;;;;;;;;;;;17.20;63.70;;;;;;5021246;28;1332;-71
2024/02/04 01:36:46;;;;;;;;;;;17.20;63.70;;;;;;5022736;28;1565;-71
2024/02/04 01:39:11;;;;;;;;;;;17.20;63.80;;;;;;5019417;28;1341;-71
2024/02/04 01:41:37;;;;;;;;;;;17.20;63.80;;;;;;5018652;28;1556;-71
2024/02/04 01:44:03;;;;;;;;;;;17.20;63.70;;;;;;5016423;28;1246;-71
2024/02/04 01:46:28;;;;;;;;;;;17.20;63.80;;;;;;5016660;28;1268;-71
2024/02/04 01:48:54;;;;;;;;;;;17.20;63.80;;;;;;5017828;28;1463;-70
2024/02/04 01:51:19;;;;;;;;;;;17.20;63.80;;;;;;5018744;28;1898;-72
2024/02/04 01:53:45;;;;;;;;;;;17.20;63.80;;;;;;5020903;28;1745;-71
2024/02/04 01:56:11;;;;;;;;;;;17.20;63.80;;;;;;5017926;28;1317;-71
2024/02/04 01:58:36;;;;;;;;;;;17.10;63.70;;;;;;5019179;28;1544;-71
2024/02/04 02:01:02;;;;;;;;;;;17.10;63.80;;;;;;5016153;28;1343;-72
2024/02/04 02:03:28;;;;;;;;;;;17.20;63.80;;;;;;5021641;28;1315;-72
2024/02/04 02:05:53;;;;;;;;;;;17.20;63.80;;;;;;5019664;28;1366;-72
2024/02/04 02:08:19;;;;;;;;;;;17.20;63.90;;;;;;5020064;28;1540;-72
2024/02/04 02:10:46;;;;;;;;;;;17.10;63.80;;;;;;5016873;28;1958;-70
2024/02/04 02:13:20;;;;;;;;;;;17.10;63.80;;;;;;5015406;28;1747;-70
2024/02/04 02:15:48;;;;;;;;;;;17.10;63.80;;;;;;5017120;28;1518;-70
2024/02/04 02:18:33;;;;;;;;;;;17.20;63.90;;;;;;5018308;28;1544;-70
2024/02/04 02:21:02;;;;;;;;;;;17.10;63.80;;;;;;5016642;28;1456;-70
2024/02/04 02:23:34;;;;;;;;;;;17.10;63.80;;;;;;5019576;28;1187;-70
2024/02/04 02:25:59;;;;;;;;;;;17.10;63.80;;;;;;5020892;28;1497;-69
2024/02/04 02:28:24;;;;;;;;;;;17.10;63.80;;;;;;5026829;28;1433;-70
2024/02/04 02:30:50;;;;;;;;;;;17.10;63.80;;;;;;5016520;28;1898;-69
2024/02/04 02:33:15;;;;;;;;;;;17.10;63.80;;;;;;5018988;28;1275;-69
2024/02/04 02:35:41;;;;;;;;;;;17.10;63.90;;;;;;5014994;28;1261;-69
2024/02/04 02:38:09;;;;;;;;;;;17.10;63.90;;;;;;5025958;28;1785;-69
2024/02/04 02:40:35;;;;;;;;;;;17.10;63.90;;;;;;5024812;28;1263;-69
2024/02/04 02:43:01;;;;;;;;;;;17.10;63.90;;;;;;5018548;28;1298;-71
2024/02/04 02:45:27;;;;;;;;;;;17.10;63.90;;;;;;5019867;28;1263;-70
2024/02/04 02:47:52;;;;;;;;;;;17.10;63.90;;;;;;5021154;28;1509;-71
2024/02/04 02:50:18;;;;;;;;;;;17.10;63.90;;;;;;5021359;28;1285;-71
2024/02/04 02:52:43;;;;;;;;;;;17.10;63.90;;;;;;5022296;28;1956;-71
2024/02/04 02:55:09;;;;;;;;;;;17.10;63.90;;;;;;5021380;28;1799;-71
2024/02/04 02:57:34;;;;;;;;;;;17.10;63.90;;;;;;5022512;28;1716;-70
2024/02/04 03:00:00;;;;;;;;;;;17.10;63.90;;;;;;5022708;28;1224;-70
2024/02/04 03:02:25;;;;;;;;;;;17.10;63.90;;;;;;5021711;28;1319;-70
2024/02/04 03:04:50;;;;;;;;;;;17.10;63.90;;;;;;5022002;28;1189;-70
2024/02/04 03:07:16;;;;;;;;;;;17.10;63.90;;;;;;5021677;28;1296;-70
2024/02/04 03:09:42;;;;;;;;;;;17.10;64.00;;;;;;5020643;28;1396;-70
2024/02/04 03:12:07;;;;;;;;;;;17.10;64.00;;;;;;5021708;28;1902;-71
2024/02/04 03:14:33;;;;;;;;;;;17.10;63.90;;;;;;5022466;28;1380;-69
2024/02/04 03:16:58;;;;;;;;;;;17.10;64.00;;;;;;5051698;28;1363;-69
2024/02/04 03:19:23;;;;;;;;;;;17.10;64.00;;;;;;5021296;28;1450;-69
2024/02/04 03:21:49;;;;;;;;;;;17.10;64.00;;;;;;5019656;28;1436;-68
2024/02/04 03:24:14;;;;;;;;;;;17.10;63.90;;;;;;5021820;28;867;-70
2024/02/04 03:26:40;;;;;;;;;;;17.10;64.00;;;;;;5020429;28;951;-69
2024/02/04 03:29:05;;;;;;;;;;;17.10;64.00;;;;;;5022162;28;1154;-69
2024/02/04 03:31:31;;;;;;;;;;;17.10;64.00;;;;;;5024232;28;1898;-69
2024/02/04 03:33:56;;;;;;;;;;;17.10;64.00;;;;;;5017777;28;1400;-69
2024/02/04 03:36:23;;;;;;;;;;;17.10;64.00;;;;;;5019128;28;1236;-68
2024/02/04 03:38:49;;;;;;;;;;;17.10;64.00;;;;;;5020404;28;1379;-69
2024/02/04 03:41:14;;;;;;;;;;;17.10;64.80;;;;;;5020958;28;2555;-68
2024/02/04 03:43:40;;;;;;;;;;;17.10;64.00;;;;;;5018021;28;1124;-69
2024/02/04 03:46:05;;;;;;;;;;;17.00;64.00;;;;;;5022514;28;1579;-69
2024/02/04 03:48:31;;;;;;;;;;;17.10;64.00;;;;;;5022394;28;1427;-69
2024/02/04 03:50:56;;;;;;;;;;;17.00;64.00;;;;;;5019629;28;1954;-69
2024/02/04 03:53:23;;;;;;;;;;;17.10;64.10;;;;;;5021087;28;1467;-69
2024/02/04 03:55:48;;;;;;;;;;;17.10;64.10;;;;;;5018590;28;1536;-69
2024/02/04 03:58:14;;;;;;;;;;;17.00;64.00;;;;;;5020571;28;1459;-69
2024/02/04 04:00:39;;;;;;;;;;;17.10;64.10;;;;;;5020182;28;1329;-69
2024/02/04 04:03:05;;;;;;;;;;;17.00;64.00;;;;;;5022084;28;1545;-68
2024/02/04 04:05:30;;;;;;;;;;;17.10;64.10;;;;;;5020732;28;1527;-69
2024/02/04 04:07:56;;;;;;;;;;;17.10;64.10;;;;;;5022046;28;1413;-69
2024/02/04 04:10:21;;;;;;;;;;;17.00;64.00;;;;;;5018808;28;1456;-69
2024/02/04 04:12:47;;;;;;;;;;;17.10;64.10;;;;;;5019931;28;1914;-69
2024/02/04 04:15:12;;;;;;;;;;;17.10;64.10;;;;;;5020728;28;1473;-69
2024/02/04 04:17:37;;;;;;;;;;;17.10;64.10;;;;;;5020172;28;1448;-69
2024/02/04 04:20:04;;;;;;;;;;;17.10;64.10;;;;;;5020563;28;1447;-70
2024/02/04 04:22:29;;;;;;;;;;;17.10;64.10;;;;;;5019706;28;1188;-69
2024/02/04 04:24:55;;;;;;;;;;;17.10;64.10;;;;;;5020973;28;1298;-69
2024/02/04 04:27:20;;;;;;;;;;;17.10;64.10;;;;;;5018379;28;1260;-69
2024/02/04 04:29:46;;;;;;;;;;;17.10;64.10;;;;;;5019933;28;1263;-69
2024/02/04 04:32:11;;;;;;;;;;;17.10;64.10;;;;;;5019235;28;1910;-69
2024/02/04 04:34:36;;;;;;;;;;;17.00;64.00;;;;;;5019274;28;1338;-69
2024/02/04 04:37:02;;;;;;;;;;;17.10;64.10;;;;;;5028302;28;1655;-69
2024/02/04 04:39:27;;;;;;;;;;;17.10;64.10;;;;;;5022284;28;1614;-68
2024/02/04 04:41:53;;;;;;;;;;;17.10;64.10;;;;;;5019928;28;1427;-69
2024/02/04 04:44:18;;;;;;;;;;;17.10;64.10;;;;;;5019927;28;1261;-69
2024/02/04 04:46:44;;;;;;;;;;;17.10;64.20;;;;;;5019097;28;1428;-69
2024/02/04 04:49:09;;;;;;;;;;;17.10;64.20;;;;;;5016985;28;1547;-69
2024/02/04 04:51:35;;;;;;;;;;;17.10;64.20;;;;;;5019105;28;1957;-70
2024/02/04 04:54:00;;;;;;;;;;;17.00;64.10;;;;;;5018591;28;1644;-70
2024/02/04 04:56:26;;;;;;;;;;;17.10;64.10;;;;;;5020897;28;1590;-69
2024/02/04 04:58:51;;;;;;;;;;;17.00;64.10;;;;;;5019723;28;1519;-70
2024/02/04 05:01:16;;;;;;;;;;;17.10;64.20;;;;;;5019710;28;1521;-69
2024/02/04 05:03:42;;;;;;;;;;;17.00;64.10;;;;;;5017306;28;1272;-69
2024/02/04 05:06:08;;;;;;;;;;;17.10;64.20;;;;;;5020156;28;1601;-69
2024/02/04 05:08:33;;;;;;;;;;;17.10;64.20;;;;;;5016980;28;1685;-69
2024/02/04 05:10:59;;;;;;;;;;;17.10;64.20;;;;;;5016449;28;1906;-70
2024/02/04 05:13:24;;;;;;;;;;;17.10;64.20;;;;;;5018568;28;1532;-70
2024/02/04 05:15:50;;;;;;;;;;;17.00;64.10;;;;;;5016486;28;1348;-69
2024/02/04 05:18:15;;;;;;;;;;;17.00;64.00;;;;;;5021112;28;1462;-69
2024/02/04 05:20:41;;;;;;;;;;;17.10;64.00;;;;;;5019190;28;1658;-69
2024/02/04 05:23:06;;;;;;;;;;;17.10;63.90;;;;;;5019131;28;1522;-70
2024/02/04 05:25:32;;;;;;;;;;;17.10;63.90;;;;;;5016833;28;1286;-70
2024/02/04 05:27:57;;;;;;;;;;;17.20;63.80;;;;;;5026863;28;1530;-70
2024/02/04 05:30:23;;;;;;;;;;;17.20;63.80;;;;;;5018723;28;1666;-70
2024/02/04 05:32:48;;;;;;;;;;;17.20;63.60;;;;;;5017520;28;1894;-70
2024/02/04 05:35:14;;;;;;;;;;;17.20;63.60;;;;;;5019698;28;1370;-70
2024/02/04 05:37:39;;;;;;;;;;;17.20;63.50;;;;;;5016797;28;1281;-70
2024/02/04 05:40:05;;;;;;;;;;;17.30;63.40;;;;;;5019565;28;1486;-70
2024/02/04 05:42:31;;;;;;;;;;;17.30;63.40;;;;;;5017854;28;1463;-69
2024/02/04 05:44:57;;;;;;;;;;;17.30;63.30;;;;;;5018794;28;1454;-70
2024/02/04 05:47:23;;;;;;;;;;;17.30;63.20;;;;;;5016392;28;1399;-71
2024/02/04 05:49:48;;;;;;;;;;;17.30;63.10;;;;;;5018823;28;1493;-73
2024/02/04 05:52:14;;;;;;;;;;;17.40;63.10;;;;;;5021327;28;1972;-72
2024/02/04 05:54:39;;;;;;;;;;;17.40;63.10;;;;;;5020285;28;1194;-71
2024/02/04 05:57:06;;;;;;;;;;;17.40;63.00;;;;;;5018579;28;1581;-73
2024/02/04 05:59:31;;;;;;;;;;;17.40;63.00;;;;;;5021065;28;1353;-73
2024/02/04 06:01:56;;;;;;;;;;;17.40;63.00;;;;;;5015710;28;1435;-70
2024/02/04 06:04:22;;;;;;;;;;;17.40;62.90;;;;;;5018855;28;1507;-71
2024/02/04 06:06:47;;;;;;;;;;;17.40;62.80;;;;;;5015651;28;1300;-72
2024/02/04 06:09:13;;;;;;;;;;;17.40;62.80;;;;;;5017285;28;1586;-71
2024/02/04 06:11:39;;;;;;;;;;;17.40;62.80;;;;;;5020583;28;1910;-71
2024/02/04 06:14:04;;;;;;;;;;;17.50;62.80;;;;;;5025805;28;1308;-72
2024/02/04 06:16:30;;;;;;;;;;;17.50;62.80;;;;;;5017179;28;1691;-71
2024/02/04 06:18:57;;;;;;;;;;;17.50;62.70;;;;;;5023456;28;1298;-71
2024/02/04 06:21:22;;;;;;;;;;;17.50;62.70;;;;;;5021501;28;1120;-69
2024/02/04 06:23:48;;;;;;;;;;;17.50;62.60;;;;;;5022210;28;875;-73
2024/02/04 06:26:13;;;;;;;;;;;17.50;62.50;;;;;;5022380;28;1471;-71
2024/02/04 06:28:39;;;;;;;;;;;17.50;62.50;;;;;;5024429;28;1363;-70
2024/02/04 06:31:04;;;;;;;;;;;17.50;62.50;;;;;;5020338;28;1902;-71
2024/02/04 06:33:29;;;;;;;;;;;17.50;62.50;;;;;;5022465;28;1171;-70
2024/02/04 06:35:55;;;;;;;;;;;17.50;63.20;;;;;;5029530;28;1363;-71
2024/02/04 06:38:21;;;;;;;;;;;17.50;62.40;;;;;;5021920;28;1312;-70
2024/02/04 06:40:46;;;;;;;;;;;17.50;62.40;;;;;;5022822;28;1356;-70
2024/02/04 06:43:12;;;;;;;;;;;17.50;62.40;;;;;;5024761;28;1407;-70
2024/02/04 06:45:37;;;;;;;;;;;17.50;62.30;;;;;;5021785;28;1585;-70
2024/02/04 06:48:03;;;;;;;;;;;17.60;62.40;;;;;;5022677;28;1475;-70
2024/02/04 06:50:28;;;;;;;;;;;17.60;62.40;;;;;;5019003;28;1349;-70
2024/02/04 06:52:54;;;;;;;;;;;17.50;62.30;;;;;;5022117;28;1890;-70
2024/02/04 06:55:19;;;;;;;;;;;17.60;62.40;;;;;;5020740;28;1402;-70
2024/02/04 06:57:45;;;;;;;;;;;17.50;62.30;;;;;;5022721;28;1528;-70
2024/02/04 07:00:11;;;;;;;;;;;17.60;62.40;;;;;;5019991;28;1499;-71
2024/02/04 07:02:37;;;;;;;;;;;17.60;62.40;;;;;;5021340;28;1233;-71
2024/02/04 07:05:02;;;;;;;;;;;17.50;62.30;;;;;;5019960;28;1468;-70
2024/02/04 07:07:28;;;;;;;;;;;17.50;62.40;;;;;;5018965;28;1373;-70
2024/02/04 07:09:53;;;;;;;;;;;17.50;62.40;;;;;;5020667;28;1289;-70
2024/02/04 07:12:19;;;;;;;;;;;17.50;62.40;;;;;;5019942;28;1926;-70
2024/02/04 07:14:44;;;;;;;;;;;17.50;62.90;;;;;;5021451;28;1517;-70
2024/02/04 07:17:11;;;;;;;;;;;17.50;62.40;;;;;;5016797;28;1646;-70
2024/02/04 07:19:37;;;;;;;;;;;17.50;62.50;;;;;;5016780;28;1298;-70
2024/02/04 07:22:02;;;;;;;;;;;17.50;62.50;;;;;;5016732;28;1459;-70
2024/02/04 07:24:28;;;;;;;;;;;17.50;62.50;;;;;;5019621;28;1523;-70
2024/02/04 07:26:53;;;;;;;;;;;17.50;62.60;;;;;;5021026;28;1763;-70
2024/02/04 07:29:19;;;;;;;;;;;17.50;62.60;;;;;;5019130;28;1386;-70
2024/02/04 07:31:44;;;;;;;;;;;17.50;62.60;;;;;;5022762;28;1977;-70
2024/02/04 07:34:10;;;;;;;;;;;17.40;62.60;;;;;;5023551;28;1431;-70
2024/02/04 07:36:35;;;;;;;;;;;17.50;62.70;;;;;;5023073;28;1549;-69
2024/02/04 07:39:04;;;;;;;;;;;17.50;62.70;;;;;;5017571;28;1269;-70
2024/02/04 07:41:30;;;;;;;;;;;17.40;62.60;;;;;;5019029;28;1576;-69
2024/02/04 07:43:55;;;;;;;;;;;17.50;62.70;;;;;;5020300;28;1467;-70
2024/02/04 07:46:21;;;;;;;;;;;17.50;62.80;;;;;;5022227;28;1326;-70
2024/02/04 07:48:46;;;;;;;;;;;17.40;62.70;;;;;;5019182;28;2015;-67
2024/02/04 07:51:12;;;;;;;;;;;17.40;62.70;;;;;;5020772;28;1907;-69
2024/02/04 07:53:38;;;;;;;;;;;17.40;62.80;;;;;;5020476;28;1347;-68
2024/02/04 07:56:06;;;;;;;;;;;17.40;62.80;;;;;;5019450;28;1202;-69
2024/02/04 07:58:32;;;;;;;;;;;17.40;62.80;;;;;;5005252;28;2082;-71
2024/02/04 08:00:57;;;;;;;;;;;17.40;62.80;;;;;;5019627;28;1631;-71
2024/02/04 08:03:23;;;;;;;;;;;17.40;62.80;;;;;;5018549;28;2140;-68
2024/02/04 08:05:48;;;;;;;;;;;17.40;62.90;;;;;;5019164;28;1605;-69
2024/02/04 08:08:14;;;;;;;;;;;17.40;62.90;;;;;;5019655;28;1938;-70
2024/02/04 08:10:39;;;;;;;;;;;17.40;62.90;;;;;;5021799;28;929;-72
2024/02/04 08:13:05;;;;;;;;;;;17.40;63.00;;;;;;5018486;28;1961;-72
2024/02/04 08:15:30;;;;;;;;;;;17.40;63.00;;;;;;5019158;28;1626;-70
2024/02/04 08:17:56;;;;;;;;;;;17.40;63.00;;;;;;5022416;28;1477;-70
2024/02/04 08:20:21;;;;;;;;;;;17.40;63.00;;;;;;5020228;28;1405;-69
2024/02/04 08:22:47;;;;;;;;;;;17.40;63.00;;;;;;5018583;28;1529;-70
2024/02/04 08:25:12;;;;;;;;;;;17.40;63.00;;;;;;5023586;28;1412;-70
2024/02/04 08:27:39;;;;;;;;;;;17.40;63.00;;;;;;5018891;28;1263;-70
2024/02/04 08:30:05;;;;;;;;;;;17.40;63.10;;;;;;5018660;28;1599;-70
2024/02/04 08:32:30;;;;;;;;;;;17.40;63.10;;;;;;5022131;28;1899;-70
2024/02/04 08:34:56;;;;;;;;;;;17.30;63.00;;;;;;5020558;28;1211;-69
2024/02/04 08:37:21;;;;;;;;;;;17.30;63.30;;;;;;5021295;28;1291;-70
2024/02/04 08:39:47;;;;;;;;;;;17.30;63.10;;;;;;5018293;28;891;-71
2024/02/04 08:42:12;;;;;;;;;;;17.30;63.10;;;;;;5017449;28;1448;-71
2024/02/04 08:44:38;;;;;;;;;;;17.30;63.10;;;;;;5019336;28;1377;-70
2024/02/04 08:47:03;;;;;;;;;;;17.30;63.10;;;;;;5017324;28;1470;-70
2024/02/04 08:49:29;;;;;;;;;;;17.30;63.10;;;;;;5020575;28;1465;-71
2024/02/04 08:51:55;;;;;;;;;;;17.30;63.20;;;;;;5018447;28;1954;-70
2024/02/04 08:54:20;;;;;;;;;;;17.30;63.20;;;;;;5022178;28;1493;-70
2024/02/04 08:56:45;;;;;;;;;;;17.30;63.20;;;;;;5019570;28;1227;-70
2024/02/04 08:59:11;;;;;;;;;;;17.30;63.20;;;;;;5019796;28;1568;-70
2024/02/04 09:01:36;;;;;;;;;;;17.30;63.10;;;;;;5020886;28;1342;-70
2024/02/04 09:04:02;;;;;;;;;;;17.30;63.10;;;;;;5019469;28;1451;-69
2024/02/04 09:06:27;;;;;;;;;;;17.30;63.10;;;;;;5016373;28;1545;-69
2024/02/04 09:08:53;;;;;;;;;;;17.40;63.10;;;;;;5020689;28;1239;-69
2024/02/04 09:11:20;;;;;;;;;;;17.40;63.00;;;;;;5019049;28;1910;-70
2024/02/04 09:13:46;;;;;;;;;;;17.40;63.00;;;;;;5018146;28;1239;-70
2024/02/04 09:16:11;;;;;;;;;;;17.40;63.00;;;;;;5019899;28;1465;-71
2024/02/04 09:18:37;;;;;;;;;;;17.40;63.00;;;;;;5021263;28;1451;-70
2024/02/04 09:21:02;;;;;;;;;;;17.40;62.90;;;;;;5019282;28;1261;-70
2024/02/04 09:23:28;;;;;;;;;;;17.40;62.90;;;;;;5018425;28;1225;-69
2024/02/04 09:25:53;;;;;;;;;;;17.40;62.80;;;;;;5019933;28;860;-69
2024/02/04 09:28:19;;;;;;;;;;;17.40;62.80;;;;;;5018743;28;1206;-69
2024/02/04 09:30:44;;;;;;;;;;;17.50;62.80;;;;;;5036199;28;1202;-70
2024/02/04 09:33:10;;;;;;;;;;;17.50;62.70;;;;;;5016746;28;1895;-70
2024/02/04 09:35:35;;;;;;;;;;;17.40;62.60;;;;;;5016426;28;1629;-70
2024/02/04 09:38:01;;;;;;;;;;;17.50;62.60;;;;;;5017196;28;1485;-70
2024/02/04 09:40:26;;;;;;;;;;;17.50;62.60;;;;;;5017626;28;1329;-70
2024/02/04 09:42:52;;;;;;;;;;;17.50;62.50;;;;;;5019263;28;1571;-69
2024/02/04 09:45:17;;;;;;;;;;;17.50;62.50;;;;;;5019138;28;1481;-71
2024/02/04 09:47:43;;;;;;;;;;;17.50;62.50;;;;;;5018278;28;1403;-71
2024/02/04 09:50:08;;;;;;;;;;;17.50;62.50;;;;;;5018053;28;1345;-71
2024/02/04 09:52:34;;;;;;;;;;;17.50;62.50;;;;;;5016979;28;1910;-70
2024/02/04 09:55:00;;;;;;;;;;;17.50;62.50;;;;;;5021933;28;1649;-71
2024/02/04 09:57:26;;;;;;;;;;;17.50;62.50;;;;;;5021217;28;1281;-71
2024/02/04 09:59:51;;;;;;;;;;;17.50;62.50;;;;;;5022948;28;1607;-70
2024/02/04 10:02:17;;;;;;;;;;;17.50;62.50;;;;;;5021254;28;1500;-71
2024/02/04 10:04:42;;;;;;;;;;;17.50;62.50;;;;;;5020646;28;1618;-71
2024/02/04 10:07:08;;;;;;;;;;;17.50;62.50;;;;;;5021377;28;1933;-70
2024/02/04 10:09:34;;;;;;;;;;;17.50;62.50;;;;;;5019323;28;1420;-70
2024/02/04 10:11:59;;;;;;;;;;;17.50;62.50;;;;;;5022972;28;1976;-71
2024/02/04 10:14:25;;;;;;;;;;;17.50;62.60;;;;;;5022167;28;1461;-72
2024/02/04 10:16:51;;;;;;;;;;;17.50;62.60;;;;;;5023890;28;1241;-71
2024/02/04 10:19:16;;;;;;;;;;;17.50;62.90;;;;;;5030186;28;1616;-71
2024/02/04 10:21:42;;;;;;;;;;;17.50;62.80;;;;;;5022738;28;1455;-71
2024/02/04 10:24:08;;;;;;;;;;;17.50;62.80;;;;;;5021863;28;1436;-70
2024/02/04 10:26:37;;;;;;;;;;;17.60;62.80;;;;;;5024284;28;1239;-71
2024/02/04 10:29:03;;;;;;;;;;;17.50;62.70;;;;;;5021089;28;1544;-71
2024/02/04 10:31:28;;;;;;;;;;;17.50;62.70;;;;;;5021264;28;1973;-71
2024/02/04 10:33:54;;;;;;;;;;;17.60;62.80;;;;;;5021773;28;1453;-71
2024/02/04 10:36:19;;;;;;;;;;;17.50;62.70;;;;;;5022278;28;1357;-71
2024/02/04 10:38:45;;;;;;;;;;;17.60;62.70;;;;;;5021894;28;1273;-71
2024/02/04 10:41:17;;;;;;;;;;;17.50;62.70;;;;;;5021251;28;1606;-70
2024/02/04 10:43:42;;;;;;;;;;;17.60;62.70;;;;;;5020056;28;1263;-71
2024/02/04 10:46:20;;;;;;;;;;;17.60;62.60;;;;;;5022644;28;1468;-70
2024/02/04 10:48:48;;;;;;;;;;;17.60;62.50;;;;;;5023641;28;1398;-71
2024/02/04 10:51:14;;;;;;;;;;;17.60;62.50;;;;;;5021153;28;1907;-70
2024/02/04 10:53:41;;;;;;;;;;;17.60;62.50;;;;;;5020554;28;1613;-70
2024/02/04 10:56:06;;;;;;;;;;;17.60;62.40;;;;;;5025434;28;1394;-70
2024/02/04 10:58:32;;;;;;;;;;;17.60;62.40;;;;;;5021846;28;1409;-70
2024/02/04 11:00:58;;;;;;;;;;;17.60;62.40;;;;;;5025127;28;1376;-69
2024/02/04 11:03:27;;;;;;;;;;;17.60;62.30;;;;;;5022747;28;1441;-69
2024/02/04 11:05:52;;;;;;;;;;;17.60;62.40;;;;;;5020011;28;1584;-69
2024/02/04 11:08:18;;;;;;;;;;;17.60;62.40;;;;;;5026897;28;1371;-69
2024/02/04 11:10:43;;;;;;;;;;;17.60;62.40;;;;;;5028308;28;1434;-68
2024/02/04 11:13:09;;;;;;;;;;;17.60;62.40;;;;;;5022636;28;1894;-71
2024/02/04 11:15:36;;;;;;;;;;;17.60;62.40;;;;;;5022444;28;1413;-70
2024/02/04 11:18:01;;;;;;;;;;;17.60;62.40;;;;;;5025013;28;1629;-69
2024/02/04 11:20:29;;;;;;;;;;;17.60;62.40;;;;;;5022530;28;1771;-70
2024/02/04 11:23:13;;;;;;;;;;;17.60;62.50;;;;;;5020317;28;2049;-68
2024/02/04 11:25:43;;;;;;;;;;;17.60;62.50;;;;;;5026040;28;1417;-69
2024/02/04 11:28:09;;;;;;;;;;;17.60;62.50;;;;;;5022137;28;1660;-71
2024/02/04 11:30:35;;;;;;;;;;;17.60;62.50;;;;;;5019685;28;1404;-71
2024/02/04 11:33:02;;;;;;;;;;;17.60;62.70;;;;;;5020640;28;1898;-69
2024/02/04 11:35:27;;;;;;;;;;;17.50;62.50;;;;;;5022551;28;1305;-69
2024/02/04 11:37:54;;;;;;;;;;;17.50;62.50;;;;;;5020210;28;1465;-69
2024/02/04 11:40:20;;;;;;;;;;;17.50;62.60;;;;;;5019020;28;1394;-70
2024/02/04 11:42:46;;;;;;;;;;;17.50;62.60;;;;;;5020890;28;1134;-68
2024/02/04 11:45:12;;;;;;;;;;;17.50;62.70;;;;;;5019892;28;1495;-70
2024/02/04 11:47:37;;;;;;;;;;;17.50;62.70;;;;;;5019806;28;1566;-69
2024/02/04 11:50:03;;;;;;;;;;;17.50;62.70;;;;;;5019277;28;1378;-71
2024/02/04 11:52:29;;;;;;;;;;;17.50;62.70;;;;;;5020258;28;1906;-73
2024/02/04 11:54:54;;;;;;;;;;;17.50;62.70;;;;;;5018981;28;952;-71
2024/02/04 11:57:20;;;;;;;;;;;17.50;62.70;;;;;;5018483;28;1516;-70
2024/02/04 11:59:46;;;;;;;;;;;17.50;62.70;;;;;;5004613;28;1532;-70
2024/02/04 12:02:12;;;;;;;;;;;17.50;62.70;;;;;;5019718;28;1607;-71
2024/02/04 12:04:39;;;;;;;;;;;17.50;62.80;;;;;;5017640;28;1556;-71
2024/02/04 12:07:04;;;;;;;;;;;17.50;62.80;;;;;;5020844;28;1479;-71
2024/02/04 12:09:31;;;;;;;;;;;17.50;62.70;;;;;;5019865;28;1216;-71
2024/02/04 12:11:57;;;;;;;;;;;17.50;62.70;;;;;;5020119;28;1973;-71
2024/02/04 12:14:22;;;;;;;;;;;17.50;62.70;;;;;;5021275;28;1574;-71
2024/02/04 12:16:48;;;;;;;;;;;17.50;62.70;;;;;;5019691;28;1532;-70
2024/02/04 12:19:13;;;;;;;;;;;17.50;62.70;;;;;;5018868;28;2163;-71
2024/02/04 12:21:39;;;;;;;;;;;17.50;62.70;;;;;;5019681;28;1302;-71
2024/02/04 12:24:04;;;;;;;;;;;17.50;62.70;;;;;;5019000;28;1444;-71
2024/02/04 12:26:30;;;;;;;;;;;17.50;62.70;;;;;;5017674;28;1291;-71
2024/02/04 12:28:55;;;;;;;;;;;17.50;62.60;;;;;;5028339;28;1409;-71
2024/02/04 12:31:23;;;;;;;;;;;17.50;62.60;;;;;;5020293;28;1918;-72
2024/02/04 12:33:57;;;;;;;;;;;17.50;62.60;;;;;;5017945;28;1561;-72
2024/02/04 12:36:23;;;;;;;;;;;17.50;62.60;;;;;;5023921;28;1932;-72
2024/02/04 12:38:52;;;;;;;;;;;17.50;62.70;;;;;;5021795;28;1321;-72
2024/02/04 12:41:18;;;;;;;;;;;17.50;62.70;;;;;;5021010;28;1458;-72
2024/02/04 12:43:47;;;;;;;;;;;17.50;62.70;;;;;;5020062;28;1461;-72
2024/02/04 12:46:13;;;;;;;;;;;17.50;62.70;;;;;;5020492;28;1572;-71
2024/02/04 12:48:39;;;;;;;;;;;17.50;62.70;;;;;;5016516;28;1359;-70
2024/02/04 12:51:04;;;;;;;;;;;17.50;62.70;;;;;;5019943;28;1443;-71
2024/02/04 12:53:30;;;;;;;;;;;17.50;62.80;;;;;;5016059;28;2049;-71
2024/02/04 12:55:59;;;;;;;;;;;17.50;62.80;;;;;;5026417;28;1567;-72
2024/02/04 12:58:26;;;;;;;;;;;17.50;62.80;;;;;;5032360;28;1696;-71
2024/02/04 13:00:59;;;;;;;;;;;17.40;62.80;;;;;;5016730;28;1461;-71
2024/02/04 13:03:24;;;;;;;;;;;17.50;62.80;;;;;;5033951;28;1337;-72
2024/02/04 13:05:50;;;;;;;;;;;17.50;62.80;;;;;;5019762;28;1037;-72
2024/02/04 13:08:18;;;;;;;;;;;17.50;62.80;;;;;;5019027;28;1569;-71
2024/02/04 13:10:45;;;;;;;;;;;17.50;62.80;;;;;;5018417;28;1503;-71
2024/02/04 13:13:13;;;;;;;;;;;17.50;62.70;;;;;;5018133;28;1910;-72
2024/02/04 13:15:39;;;;;;;;;;;17.50;62.70;;;;;;5018684;28;1327;-72
2024/02/04 13:18:04;;;;;;;;;;;17.50;62.70;;;;;;5017726;28;1371;-71
2024/02/04 13:20:30;;;;;;;;;;;17.50;62.70;;;;;;5019048;28;1474;-72
2024/02/04 13:22:57;;;;;;;;;;;17.50;62.70;;;;;;5018347;28;1819;-70
2024/02/04 13:25:23;;;;;;;;;;;17.50;62.70;;;;;;5018148;28;1821;-71
2024/02/04 13:27:49;;;;;;;;;;;17.50;62.70;;;;;;5018647;28;1280;-71
2024/02/04 13:30:14;;;;;;;;;;;17.50;62.70;;;;;;5015360;28;1399;-71
2024/02/04 13:32:40;;;;;;;;;;;17.50;62.70;;;;;;5017321;28;1902;-72
2024/02/04 13:35:08;;;;;;;;;;;17.50;62.80;;;;;;5018574;28;1754;-71
2024/02/04 13:37:55;;;;;;;;;;;17.50;62.80;;;;;;5018607;28;1949;-72
2024/02/04 13:40:20;;;;;;;;;;;17.50;62.70;;;;;;5018391;28;1377;-71
2024/02/04 13:42:46;;;;;;;;;;;17.50;62.80;;;;;;5015855;28;1562;-71
2024/02/04 13:45:14;;;;;;;;;;;17.50;62.80;;;;;;5025581;28;1510;-72
2024/02/04 13:47:39;;;;;;;;;;;17.50;62.70;;;;;;5017616;28;1547;-71
2024/02/04 13:50:05;;;;;;;;;;;17.50;62.70;;;;;;5014693;28;1521;-71
2024/02/04 13:52:30;;;;;;;;;;;17.50;62.60;;;;;;5014733;28;1969;-70
2024/02/04 13:54:56;;;;;;;;;;;17.50;62.60;;;;;;5015856;28;1524;-69
2024/02/04 13:57:22;;;;;;;;;;;17.60;62.60;;;;;;5016925;28;1486;-70
2024/02/04 13:59:48;;;;;;;;;;;17.60;62.50;;;;;;5017924;28;1241;-71
2024/02/04 14:02:13;;;;;;;;;;;17.60;62.50;;;;;;5018405;28;1263;-71
2024/02/04 14:04:39;;;;;;;;;;;17.60;62.40;;;;;;5015855;28;1334;-71
2024/02/04 14:07:04;;;;;;;;;;;17.60;62.40;;;;;;5019864;28;1415;-70
2024/02/04 14:09:30;;;;;;;;;;;17.60;62.30;;;;;;5019288;28;1593;-70
2024/02/04 14:11:56;;;;;;;;;;;17.60;62.30;;;;;;5019485;28;1910;-70
2024/02/04 14:14:24;;;;;;;;;;;17.60;62.20;;;;;;5018117;28;1578;-71
2024/02/04 14:16:50;;;;;;;;;;;17.60;62.20;;;;;;5020403;28;1452;-70
2024/02/04 14:19:16;;;;;;;;;;;17.60;62.20;;;;;;5016337;28;1314;-71
2024/02/04 14:21:41;;;;;;;;;;;17.60;62.20;;;;;;5026703;28;1345;-72
2024/02/04 14:24:07;;;;;;;;;;;17.60;63.00;;;;;;5018441;28;1842;-70